Time;durP1;ratioP1;P1;durP2;ratioP2;P2;SDS_P1;SDS_P2;PMS_P1;PMS_P2;Temp;Humidity;BMP_temperature;BMP_pressure;BME280_temperature;BME280_humidity;BME280_pressure;Samples;Min_cycle;Max_cycle;Signal;HPM_P1;HPM_P2
2021/10/27 00:01:48;;;;;;;0.40;0.20;;;8.20;99.90;;;;;;5089573;28;20424;-69
2021/10/27 00:04:14;;;;;;;0.40;0.30;;;8.20;99.90;;;;;;5090217;28;20826;-69
2021/10/27 00:06:41;;;;;;;0.40;0.20;;;8.10;99.90;;;;;;5089204;28;20493;-69
2021/10/27 00:09:06;;;;;;;0.40;0.20;;;8.10;99.90;;;;;;5090124;28;20427;-69
2021/10/27 00:11:32;;;;;;;0.40;0.20;;;8.10;99.90;;;;;;5092109;28;20385;-69
2021/10/27 00:13:59;;;;;;;0.80;0.80;;;8.10;99.90;;;;;;5093677;28;20497;-69
2021/10/27 00:16:29;;;;;;;0.40;0.20;;;8.10;99.90;;;;;;5094243;28;20417;-69
2021/10/27 00:18:55;;;;;;;0.40;0.20;;;8.20;99.90;;;;;;5093285;28;20530;-69
2021/10/27 00:21:20;;;;;;;0.40;0.30;;;8.20;99.90;;;;;;5094214;28;20374;-69
2021/10/27 00:23:46;;;;;;;0.40;0.40;;;8.10;99.90;;;;;;5092937;28;20397;-69
2021/10/27 00:26:12;;;;;;;0.40;0.20;;;8.10;99.90;;;;;;5093769;28;20409;-69
2021/10/27 00:28:37;;;;;;;0.40;0.30;;;7.90;99.90;;;;;;5092961;28;20394;-71
2021/10/27 00:31:03;;;;;;;0.40;0.20;;;7.90;99.90;;;;;;5093818;28;20366;-69
2021/10/27 00:33:28;;;;;;;0.40;0.30;;;8.00;99.90;;;;;;5094225;28;20734;-69
2021/10/27 00:35:54;;;;;;;0.40;0.20;;;7.90;99.90;;;;;;5092786;28;21303;-69
2021/10/27 00:38:20;;;;;;;0.50;0.50;;;7.90;99.90;;;;;;5093506;28;20385;-69
2021/10/27 00:40:46;;;;;;;0.40;0.20;;;7.70;99.90;;;;;;5092462;28;20389;-69
2021/10/27 00:43:12;;;;;;;0.40;0.30;;;7.70;99.90;;;;;;5093655;28;20374;-69
2021/10/27 00:45:38;;;;;;;0.40;0.30;;;7.60;99.90;;;;;;5092963;28;20370;-70
2021/10/27 00:48:04;;;;;;;0.50;0.50;;;7.70;99.90;;;;;;5093484;28;20409;-68
2021/10/27 00:50:32;;;;;;;0.40;0.28;;;7.80;99.90;;;;;;5092244;28;20389;-69
2021/10/27 00:52:58;;;;;;;0.40;0.30;;;7.70;99.90;;;;;;5092495;28;20403;-69
2021/10/27 00:55:25;;;;;;;0.40;0.30;;;7.60;99.90;;;;;;5092955;28;20408;-69
2021/10/27 00:57:52;;;;;;;0.40;0.20;;;7.60;99.90;;;;;;5091359;28;20405;-69
2021/10/27 01:00:18;;;;;;;0.40;0.30;;;7.60;99.90;;;;;;5091946;28;20863;-68
2021/10/27 01:02:44;;;;;;;0.40;0.30;;;7.60;99.90;;;;;;5092467;28;20387;-69
2021/10/27 01:05:11;;;;;;;0.40;0.25;;;7.50;99.90;;;;;;5093326;28;20452;-68
2021/10/27 01:07:37;;;;;;;0.40;0.20;;;7.40;99.90;;;;;;5092679;28;20409;-69
2021/10/27 01:10:04;;;;;;;0.40;0.20;;;7.30;99.90;;;;;;5093172;28;20473;-69
2021/10/27 01:12:30;;;;;;;0.40;0.30;;;7.40;99.90;;;;;;5093491;28;20425;-69
2021/10/27 01:14:55;;;;;;;0.40;0.20;;;7.50;99.90;;;;;;5091781;28;20421;-69
2021/10/27 01:17:21;;;;;;;1.00;0.90;;;7.40;99.90;;;;;;5093199;28;20726;-69
2021/10/27 01:19:57;;;;;;;0.40;0.30;;;7.40;99.90;;;;;;5092058;28;20938;-69
2021/10/27 01:22:26;;;;;;;0.40;0.40;;;7.40;99.90;;;;;;5092422;28;20374;-69
2021/10/27 01:24:53;;;;;;;0.40;0.30;;;7.40;99.90;;;;;;5092160;28;20422;-69
2021/10/27 01:27:20;;;;;;;0.40;0.20;;;7.40;99.90;;;;;;5092913;28;20825;-69
2021/10/27 01:29:45;;;;;;;0.40;0.20;;;7.40;99.90;;;;;;5091932;28;20727;-70
2021/10/27 01:32:21;;;;;;;0.40;0.20;;;7.40;99.90;;;;;;5092844;28;20378;-69
2021/10/27 01:34:47;;;;;;;0.40;0.30;;;7.40;99.90;;;;;;5091865;28;20378;-69
2021/10/27 01:37:13;;;;;;;0.40;0.20;;;7.30;99.90;;;;;;5092841;28;20523;-69
2021/10/27 01:39:39;;;;;;;0.52;0.52;;;7.40;99.90;;;;;;5092522;28;20397;-71
2021/10/27 01:42:05;;;;;;;0.50;0.50;;;7.40;99.90;;;;;;5092272;28;20704;-69
2021/10/27 01:44:31;;;;;;;0.40;0.20;;;7.30;99.90;;;;;;5092330;28;20470;-69
2021/10/27 01:46:57;;;;;;;0.40;0.20;;;7.30;99.90;;;;;;5091343;28;20402;-69
2021/10/27 01:49:22;;;;;;;0.40;0.20;;;7.40;99.90;;;;;;5092945;28;20791;-69
2021/10/27 01:51:48;;;;;;;0.40;0.20;;;7.30;99.90;;;;;;5091294;28;20668;-70
2021/10/27 01:54:14;;;;;;;0.40;0.20;;;7.30;99.90;;;;;;5092485;28;20546;-69
2021/10/27 01:56:40;;;;;;;0.40;0.30;;;7.20;99.90;;;;;;5092243;28;20865;-70
2021/10/27 01:59:06;;;;;;;0.40;0.20;;;7.20;99.90;;;;;;5091878;28;20390;-70
2021/10/27 02:01:31;;;;;;;0.40;0.30;;;7.10;99.90;;;;;;5091778;28;20405;-69
2021/10/27 02:03:57;;;;;;;1.00;0.70;;;7.20;99.90;;;;;;5091516;28;20382;-69
2021/10/27 02:06:23;;;;;;;0.50;0.50;;;7.20;99.90;;;;;;5090632;28;20463;-69
2021/10/27 02:08:48;;;;;;;0.40;0.40;;;7.20;99.90;;;;;;5090825;28;20543;-69
2021/10/27 02:11:14;;;;;;;0.40;0.20;;;7.10;99.90;;;;;;5091421;28;20378;-69
2021/10/27 02:13:39;;;;;;;0.40;0.20;;;7.10;99.90;;;;;;5092134;28;20382;-69
2021/10/27 02:16:06;;;;;;;0.40;0.20;;;7.10;99.90;;;;;;5091533;28;20382;-69
2021/10/27 02:18:31;;;;;;;0.40;0.20;;;7.10;99.90;;;;;;5092089;28;20405;-70
2021/10/27 02:20:57;;;;;;;0.40;0.20;;;7.10;99.90;;;;;;5090793;28;20378;-70
2021/10/27 02:23:23;;;;;;;0.40;0.20;;;7.10;99.90;;;;;;5091290;28;20413;-69
2021/10/27 02:25:49;;;;;;;0.70;0.70;;;7.10;99.90;;;;;;5091246;28;20954;-70
2021/10/27 02:28:14;;;;;;;0.40;0.23;;;7.10;99.90;;;;;;5091390;28;20398;-69
2021/10/27 02:30:41;;;;;;;0.40;0.20;;;7.10;99.90;;;;;;5091407;28;20386;-69
2021/10/27 02:33:07;;;;;;;0.40;0.30;;;7.10;99.90;;;;;;5089034;28;20409;-70
2021/10/27 02:35:33;;;;;;;0.40;0.40;;;7.10;99.90;;;;;;5091547;28;20374;-69
2021/10/27 02:37:58;;;;;;;0.40;0.30;;;7.10;99.90;;;;;;5090750;28;20382;-70
2021/10/27 02:40:24;;;;;;;0.40;0.20;;;7.20;99.90;;;;;;5091563;28;20437;-69
2021/10/27 02:42:51;;;;;;;0.40;0.30;;;7.20;99.90;;;;;;5090382;28;20870;-70
2021/10/27 02:45:17;;;;;;;0.40;0.30;;;7.30;99.90;;;;;;5091319;28;20839;-70
2021/10/27 02:47:44;;;;;;;0.60;0.50;;;7.30;99.90;;;;;;5091435;28;20397;-71
2021/10/27 02:50:12;;;;;;;0.40;0.30;;;7.20;99.90;;;;;;5091043;28;20403;-70
2021/10/27 02:52:38;;;;;;;0.40;0.40;;;7.20;99.90;;;;;;5090970;28;20398;-70
2021/10/27 02:55:04;;;;;;;0.40;0.40;;;7.30;99.90;;;;;;5088809;28;20451;-69
2021/10/27 02:57:30;;;;;;;0.40;0.30;;;7.30;99.90;;;;;;5091104;28;20398;-70
2021/10/27 02:59:56;;;;;;;0.40;0.20;;;7.20;99.90;;;;;;5090404;28;20714;-70
2021/10/27 03:02:22;;;;;;;0.40;0.20;;;7.20;99.90;;;;;;5090795;28;20470;-70
2021/10/27 03:04:47;;;;;;;0.40;0.20;;;7.20;99.90;;;;;;5090119;28;20461;-72
2021/10/27 03:07:13;;;;;;;0.40;0.20;;;7.30;99.90;;;;;;5089660;28;20481;-70
2021/10/27 03:09:39;;;;;;;0.40;0.40;;;7.30;99.90;;;;;;5090911;28;20437;-69
2021/10/27 03:12:05;;;;;;;0.40;0.20;;;7.20;99.90;;;;;;5088366;28;20450;-70
2021/10/27 03:14:30;;;;;;;0.40;0.30;;;7.30;99.90;;;;;;5089630;28;20379;-70
2021/10/27 03:16:56;;;;;;;0.40;0.30;;;7.20;99.90;;;;;;5090097;28;20378;-70
2021/10/27 03:19:22;;;;;;;0.40;0.30;;;7.20;99.90;;;;;;5089377;28;20394;-70
2021/10/27 03:21:47;;;;;;;0.40;0.20;;;7.10;99.90;;;;;;5090308;28;20379;-71
2021/10/27 03:24:14;;;;;;;0.40;0.30;;;7.10;99.90;;;;;;5090773;28;20463;-69
2021/10/27 03:26:40;;;;;;;0.40;0.20;;;7.10;99.90;;;;;;5090702;28;20406;-69
2021/10/27 03:29:06;;;;;;;0.40;0.20;;;7.10;99.90;;;;;;5088654;28;20389;-69
2021/10/27 03:31:32;;;;;;;0.40;0.20;;;7.20;99.90;;;;;;5090695;28;20374;-69
2021/10/27 03:33:58;;;;;;;0.40;0.30;;;7.10;99.90;;;;;;5089925;28;20435;-69
2021/10/27 03:36:24;;;;;;;0.40;0.20;;;7.00;99.90;;;;;;5090539;28;20386;-70
2021/10/27 03:38:50;;;;;;;0.40;0.30;;;6.90;99.90;;;;;;5089856;28;20370;-70
2021/10/27 03:41:16;;;;;;;0.40;0.20;;;6.90;99.90;;;;;;5090468;28;20484;-69
2021/10/27 03:43:42;;;;;;;0.40;0.20;;;7.00;99.90;;;;;;5090814;28;20439;-69
2021/10/27 03:46:09;;;;;;;0.40;0.20;;;6.90;99.90;;;;;;5089237;28;20956;-69
2021/10/27 03:48:36;;;;;;;0.40;0.20;;;6.80;99.90;;;;;;5090542;28;20385;-69
2021/10/27 03:51:01;;;;;;;0.40;0.20;;;6.90;99.90;;;;;;5089392;28;20464;-69
2021/10/27 03:53:27;;;;;;;0.40;0.40;;;7.00;99.90;;;;;;5090389;28;20494;-69
2021/10/27 03:55:54;;;;;;;1.60;0.50;;;7.00;99.90;;;;;;5089602;28;20792;-70
2021/10/27 03:58:20;;;;;;;0.50;0.50;;;6.90;99.90;;;;;;5090352;28;20765;-69
2021/10/27 04:00:46;;;;;;;0.40;0.30;;;6.80;99.90;;;;;;5090470;28;20435;-69
2021/10/27 04:03:12;;;;;;;0.40;0.20;;;6.80;99.90;;;;;;5090498;28;20385;-69
2021/10/27 04:05:38;;;;;;;0.40;0.20;;;6.70;99.90;;;;;;5090520;28;20854;-69
2021/10/27 04:08:04;;;;;;;0.40;0.20;;;6.70;99.90;;;;;;5089764;28;20398;-69
2021/10/27 04:10:30;;;;;;;0.40;0.40;;;6.80;99.90;;;;;;5090768;28;20382;-69
2021/10/27 04:12:56;;;;;;;0.40;0.20;;;6.80;99.90;;;;;;5089620;28;20443;-69
2021/10/27 04:15:21;;;;;;;0.40;0.20;;;6.60;99.90;;;;;;5090685;28;20374;-69
2021/10/27 04:17:47;;;;;;;0.40;0.30;;;6.50;99.90;;;;;;5090385;28;20389;-69
2021/10/27 04:20:13;;;;;;;0.40;0.30;;;6.40;99.90;;;;;;5089980;28;20715;-69
2021/10/27 04:22:40;;;;;;;0.40;0.20;;;6.50;99.90;;;;;;5090548;28;20374;-69
2021/10/27 04:25:08;;;;;;;0.40;0.30;;;6.50;99.90;;;;;;5090057;28;20504;-69
2021/10/27 04:27:34;;;;;;;0.40;0.30;;;6.50;99.90;;;;;;5089219;28;20491;-69
2021/10/27 04:30:00;;;;;;;0.80;0.80;;;6.40;99.90;;;;;;5089762;28;20861;-69
2021/10/27 04:32:25;;;;;;;0.70;0.60;;;6.40;99.90;;;;;;5090534;28;20854;-69
2021/10/27 04:34:51;;;;;;;0.40;0.20;;;6.40;99.90;;;;;;5089968;28;20754;-71
2021/10/27 04:37:18;;;;;;;0.60;0.60;;;6.30;99.90;;;;;;5090030;28;20479;-69
2021/10/27 04:39:43;;;;;;;0.80;0.80;;;6.40;99.90;;;;;;5089116;28;20448;-69
2021/10/27 04:42:09;;;;;;;0.40;0.20;;;6.40;99.90;;;;;;5089433;28;20435;-69
2021/10/27 04:44:35;;;;;;;0.40;0.20;;;6.50;99.90;;;;;;5090372;28;20392;-69
2021/10/27 04:47:03;;;;;;;0.40;0.20;;;6.40;99.90;;;;;;5089596;28;20475;-69
2021/10/27 04:49:30;;;;;;;0.40;0.20;;;6.40;99.90;;;;;;5090402;28;20386;-69
2021/10/27 04:51:55;;;;;;;0.40;0.20;;;6.40;99.90;;;;;;5089363;28;20402;-70
2021/10/27 04:54:21;;;;;;;0.40;0.30;;;6.40;99.90;;;;;;5090433;28;20686;-69
2021/10/27 04:56:46;;;;;;;0.40;0.30;;;6.50;99.90;;;;;;5091217;28;20378;-70
2021/10/27 04:59:12;;;;;;;0.40;0.20;;;6.50;99.90;;;;;;5092805;28;20370;-70
2021/10/27 05:01:38;;;;;;;0.40;0.30;;;6.50;99.90;;;;;;5093444;28;20382;-70
2021/10/27 05:04:04;;;;;;;0.90;0.80;;;6.50;99.90;;;;;;5092390;28;20975;-69
2021/10/27 05:06:30;;;;;;;0.40;0.20;;;6.40;99.90;;;;;;5093756;28;20410;-69
2021/10/27 05:08:56;;;;;;;0.40;0.30;;;6.30;99.90;;;;;;5092319;28;20905;-70
2021/10/27 05:11:24;;;;;;;0.40;0.30;;;6.30;99.90;;;;;;5093855;28;20791;-69
2021/10/27 05:13:49;;;;;;;0.40;0.20;;;6.40;99.90;;;;;;5093519;28;20381;-70
2021/10/27 05:16:15;;;;;;;0.60;0.60;;;6.30;99.90;;;;;;5091787;28;20370;-70
2021/10/27 05:18:40;;;;;;;0.40;0.20;;;6.20;99.90;;;;;;5093364;28;20378;-71
2021/10/27 05:21:06;;;;;;;0.40;0.30;;;6.30;99.90;;;;;;5093105;28;20465;-71
2021/10/27 05:23:32;;;;;;;0.40;0.30;;;6.10;99.90;;;;;;5092067;28;20475;-70
2021/10/27 05:25:57;;;;;;;0.40;0.30;;;6.10;99.90;;;;;;5092329;28;20413;-70
2021/10/27 05:28:24;;;;;;;0.40;0.20;;;6.10;99.90;;;;;;5092906;28;20410;-70
2021/10/27 05:30:50;;;;;;;0.40;0.40;;;6.20;99.90;;;;;;5091940;28;20837;-70
2021/10/27 05:33:16;;;;;;;1.70;0.80;;;6.20;99.90;;;;;;5092013;28;20375;-70
2021/10/27 05:35:41;;;;;;;0.40;0.27;;;6.20;99.90;;;;;;5092765;28;20410;-70
2021/10/27 05:38:07;;;;;;;0.40;0.20;;;6.20;99.90;;;;;;5092080;28;20387;-70
2021/10/27 05:40:33;;;;;;;0.40;0.30;;;6.20;99.90;;;;;;5091411;28;20421;-70
2021/10/27 05:43:05;;;;;;;0.40;0.20;;;6.40;99.90;;;;;;5091977;28;20381;-71
2021/10/27 05:45:33;;;;;;;0.40;0.40;;;6.20;99.90;;;;;;5092758;28;20850;-70
2021/10/27 05:48:00;;;;;;;0.40;0.30;;;6.20;99.90;;;;;;5092069;28;20500;-70
2021/10/27 05:50:37;;;;;;;0.40;0.30;;;6.30;99.90;;;;;;5093148;28;20513;-70
2021/10/27 05:55:47;;;;;;;0.40;0.35;;;6.20;99.90;;;;;;5092791;28;20471;-70
2021/10/27 05:58:14;;;;;;;0.40;0.20;;;6.30;99.90;;;;;;5091880;28;20471;-70
2021/10/27 06:00:41;;;;;;;0.60;0.60;;;6.20;99.90;;;;;;5092791;28;20382;-70
2021/10/27 06:03:07;;;;;;;0.63;0.57;;;6.20;99.90;;;;;;5091489;28;20375;-70
2021/10/27 06:05:34;;;;;;;0.40;0.20;;;6.30;99.90;;;;;;5092229;28;20713;-70
2021/10/27 06:08:00;;;;;;;0.40;0.30;;;6.40;99.90;;;;;;5090615;28;20494;-71
2021/10/27 06:10:26;;;;;;;0.40;0.20;;;6.40;99.90;;;;;;5092625;28;20847;-70
2021/10/27 06:12:56;;;;;;;0.40;0.40;;;6.40;99.90;;;;;;5092399;28;20409;-70
2021/10/27 06:15:23;;;;;;;0.40;0.20;;;6.40;99.90;;;;;;5091973;28;20435;-71
2021/10/27 06:17:49;;;;;;;0.40;0.30;;;6.50;99.90;;;;;;5092270;28;20849;-71
2021/10/27 06:20:15;;;;;;;0.40;0.30;;;6.50;99.90;;;;;;5091481;28;20378;-70
2021/10/27 06:22:42;;;;;;;0.40;0.20;;;6.50;99.90;;;;;;5092078;28;20784;-71
2021/10/27 06:25:09;;;;;;;0.40;0.20;;;6.50;99.90;;;;;;5091803;28;20378;-71
2021/10/27 06:27:35;;;;;;;0.40;0.20;;;6.50;99.90;;;;;;5092051;28;20427;-70
2021/10/27 06:30:10;;;;;;;0.40;0.40;;;6.60;99.90;;;;;;5091008;28;20386;-71
2021/10/27 06:35:18;;;;;;;0.70;0.40;;;6.60;99.90;;;;;;5091373;28;20401;-70
2021/10/27 06:46:23;;;;;;;0.40;0.20;;;6.60;99.90;;;;;;5067534;28;20379;-72
2021/10/27 06:48:45;;;;;;;0.40;0.30;;;6.60;99.90;;;;;;5091666;28;20863;-68
2021/10/27 06:51:11;;;;;;;0.40;0.20;;;6.60;99.90;;;;;;5090669;28;20421;-70
2021/10/27 06:53:37;;;;;;;0.80;0.80;;;6.50;99.90;;;;;;5091596;28;20564;-70
2021/10/27 06:56:08;;;;;;;0.40;0.20;;;6.60;99.90;;;;;;5091024;28;20390;-71
2021/10/27 06:58:42;;;;;;;0.50;0.50;;;6.70;99.90;;;;;;5091809;28;20378;-70
2021/10/27 07:01:09;;;;;;;0.40;0.30;;;6.80;99.90;;;;;;5090212;28;20720;-70
2021/10/27 07:04:00;;;;;;;0.40;0.30;;;6.90;99.90;;;;;;5091995;28;20457;-70
2021/10/27 07:06:49;;;;;;;0.40;0.20;;;6.80;99.90;;;;;;5091409;28;20393;-71
2021/10/27 07:15:08;;;;;;;0.40;0.40;;;7.10;99.90;;;;;;5028473;28;20379;-70
2021/10/27 07:17:34;;;;;;;0.40;0.22;;;7.00;99.90;;;;;;5081823;28;20927;-70
2021/10/27 07:20:05;;;;;;;0.40;0.30;;;7.20;99.90;;;;;;5090852;28;20374;-70
2021/10/27 07:22:31;;;;;;;0.40;0.30;;;7.20;99.90;;;;;;5090556;28;20754;-70
2021/10/27 07:24:58;;;;;;;0.40;0.20;;;7.30;99.90;;;;;;5091725;28;20390;-70
2021/10/27 07:27:25;;;;;;;0.40;0.20;;;7.40;99.90;;;;;;5091275;28;20466;-70
2021/10/27 07:29:51;;;;;;;0.40;0.30;;;7.40;99.90;;;;;;5091313;28;21008;-70
2021/10/27 07:32:17;;;;;;;0.40;0.30;;;7.60;99.90;;;;;;5091022;28;20464;-70
2021/10/27 07:34:59;;;;;;;2.60;1.30;;;7.70;99.90;;;;;;5091411;28;20386;-70
2021/10/27 07:43:04;;;;;;;0.40;0.20;;;7.90;99.90;;;;;;5091536;28;20464;-70
2021/10/27 07:45:31;;;;;;;0.40;0.20;;;8.00;99.90;;;;;;5091340;28;20378;-70
2021/10/27 07:47:58;;;;;;;0.40;0.30;;;8.00;99.90;;;;;;5091047;28;20870;-70
2021/10/27 07:50:25;;;;;;;0.40;0.30;;;8.10;99.90;;;;;;5090108;28;20716;-70
2021/10/27 07:52:52;;;;;;;0.40;0.30;;;8.10;99.90;;;;;;5089817;28;20409;-70
2021/10/27 07:55:18;;;;;;;0.40;0.20;;;8.30;99.90;;;;;;5090642;28;20390;-70
2021/10/27 07:57:45;;;;;;;0.50;0.50;;;8.30;99.90;;;;;;5091173;28;20396;-70
2021/10/27 08:00:12;;;;;;;0.40;0.20;;;8.30;99.90;;;;;;5089228;28;20378;-70
2021/10/27 08:02:39;;;;;;;0.40;0.30;;;8.30;99.90;;;;;;5091143;28;20378;-70
2021/10/27 08:05:05;;;;;;;0.40;0.20;;;8.40;99.90;;;;;;5090447;28;20392;-70
2021/10/27 08:07:30;;;;;;;0.90;0.70;;;8.40;99.90;;;;;;5090932;28;20402;-70
2021/10/27 08:09:56;;;;;;;0.40;0.30;;;8.50;99.90;;;;;;5090783;28;20409;-70
2021/10/27 08:12:22;;;;;;;0.40;0.20;;;8.60;99.90;;;;;;5090596;28;20374;-70
2021/10/27 08:14:47;;;;;;;0.40;0.30;;;8.70;99.90;;;;;;5089825;28;20381;-70
2021/10/27 08:17:13;;;;;;;0.40;0.30;;;8.80;99.90;;;;;;5090256;28;20435;-70
2021/10/27 08:19:39;;;;;;;0.40;0.20;;;8.80;99.90;;;;;;5090927;28;20443;-70
2021/10/27 08:22:07;;;;;;;0.40;0.30;;;8.80;99.90;;;;;;5090524;28;20839;-70
2021/10/27 08:24:35;;;;;;;0.40;0.20;;;8.90;99.90;;;;;;5089660;28;20406;-70
2021/10/27 08:27:09;;;;;;;0.40;0.30;;;8.90;99.90;;;;;;5090485;28;20882;-70
2021/10/27 08:29:40;;;;;;;0.40;0.30;;;9.00;99.90;;;;;;5090976;28;20469;-70
2021/10/27 08:33:07;;;;;;;0.40;0.30;;;9.00;99.90;;;;;;5092063;28;20412;-71
2021/10/27 08:35:01;;;;;;;0.55;0.50;;;9.20;99.90;;;;;;5089366;28;20746;-70
2021/10/27 08:37:27;;;;;;;0.40;0.30;;;9.40;99.90;;;;;;5094238;28;20481;-70
2021/10/27 08:39:52;;;;;;;0.40;0.30;;;9.50;99.90;;;;;;5094749;28;20723;-70
2021/10/27 08:42:19;;;;;;;0.40;0.30;;;9.50;99.90;;;;;;5093739;28;20396;-70
2021/10/27 08:44:45;;;;;;;0.40;0.20;;;9.70;99.90;;;;;;5094549;28;20428;-70
2021/10/27 08:47:11;;;;;;;0.40;0.20;;;9.70;99.90;;;;;;5093811;28;20766;-70
2021/10/27 08:49:38;;;;;;;1.13;0.67;;;9.80;99.90;;;;;;5094441;28;20382;-70
2021/10/27 08:52:08;;;;;;;0.40;0.30;;;9.90;99.90;;;;;;5093964;28;20402;-70
2021/10/27 08:54:34;;;;;;;0.40;0.30;;;10.00;99.90;;;;;;5094373;28;20435;-69
2021/10/27 08:57:08;;;;;;;0.50;0.50;;;10.10;99.90;;;;;;5094211;28;20382;-69
2021/10/27 09:05:07;;;;;;;1.10;0.90;;;10.20;99.90;;;;;;5093975;28;20393;-69
2021/10/27 10:06:19;;;;;;;0.40;0.20;;;10.60;99.90;;;;;;5072009;28;20433;-69
2021/10/27 10:08:45;;;;;;;0.60;0.60;;;10.70;99.90;;;;;;5072789;28;20388;-69
2021/10/27 10:11:12;;;;;;;0.40;0.22;;;10.80;99.90;;;;;;5072033;28;20383;-70
2021/10/27 10:13:39;;;;;;;0.40;0.20;;;10.90;99.90;;;;;;5072518;28;20745;-69
2021/10/27 10:16:06;;;;;;;0.40;0.40;;;11.00;99.90;;;;;;5071295;28;20929;-69
2021/10/27 10:18:32;;;;;;;1.30;1.20;;;11.00;99.90;;;;;;5071557;28;20474;-69
2021/10/27 10:20:59;;;;;;;0.40;0.30;;;11.00;99.90;;;;;;5072459;28;20383;-69
2021/10/27 10:23:26;;;;;;;0.40;0.30;;;11.10;99.90;;;;;;5071803;28;20388;-69
2021/10/27 10:25:54;;;;;;;0.40;0.20;;;11.20;99.90;;;;;;5072115;28;20386;-69
2021/10/27 10:28:22;;;;;;;0.93;0.93;;;11.30;99.90;;;;;;5071297;28;20456;-69
2021/10/27 10:30:54;;;;;;;2.90;1.40;;;11.40;99.90;;;;;;5071983;28;20486;-69
2021/10/27 10:33:33;;;;;;;0.40;0.30;;;11.40;99.90;;;;;;5071700;28;20417;-70
2021/10/27 10:36:04;;;;;;;0.40;0.22;;;11.60;99.90;;;;;;5071823;28;20393;-69
2021/10/27 10:41:43;;;;;;;0.40;0.30;;;11.80;99.90;;;;;;5071004;28;20386;-69
2021/10/27 11:40:14;;;;;;;0.40;0.30;;;18.00;94.40;;;;;;5090971;28;20730;-69
2021/10/27 11:42:47;;;;;;;0.40;0.30;;;17.90;93.20;;;;;;5090277;28;20382;-69
2021/10/27 11:48:02;;;;;;;1.00;0.60;;;17.70;93.80;;;;;;5090998;28;20430;-69
2021/10/27 11:50:36;;;;;;;0.40;0.30;;;18.00;93.30;;;;;;5090083;28;20688;-69
2021/10/27 11:53:04;;;;;;;0.40;0.30;;;17.40;93.30;;;;;;5090517;28;20390;-69
2021/10/27 11:55:32;;;;;;;0.40;0.20;;;18.10;93.30;;;;;;5089988;28;20374;-70
2021/10/27 11:57:57;;;;;;;0.40;0.40;;;18.80;92.20;;;;;;5090562;28;20416;-69
2021/10/27 12:00:37;;;;;;;0.40;0.30;;;18.90;92.10;;;;;;5090015;28;20374;-71
2021/10/27 12:05:54;;;;;;;0.40;0.20;;;17.50;92.40;;;;;;5091462;28;20402;-69
2021/10/27 12:11:05;;;;;;;0.40;0.30;;;18.30;93.00;;;;;;5094949;28;20412;-69
2021/10/27 12:19:05;;;;;;;0.70;0.70;;;17.80;93.00;;;;;;5094965;28;20492;-70
2021/10/27 12:21:31;;;;;;;0.40;0.30;;;17.40;94.00;;;;;;5094441;28;20378;-69
2021/10/27 12:23:59;;;;;;;0.40;0.30;;;17.30;95.10;;;;;;5094918;28;20384;-69
2021/10/27 12:26:25;;;;;;;0.40;0.30;;;16.90;96.50;;;;;;5094212;28;20898;-69
2021/10/27 12:29:12;;;;;;;0.40;0.20;;;16.20;96.70;;;;;;5094858;28;20447;-70
2021/10/27 12:31:39;;;;;;;1.20;1.10;;;16.80;96.60;;;;;;5094328;28;20399;-70
2021/10/27 12:34:27;;;;;;;0.40;0.30;;;16.80;96.70;;;;;;5094101;28;20370;-70
2021/10/27 12:36:58;;;;;;;0.40;0.20;;;17.10;96.10;;;;;;5094228;28;20469;-70
2021/10/27 12:39:28;;;;;;;0.40;0.20;;;17.10;96.00;;;;;;5094282;28;20378;-69
2021/10/27 12:42:07;;;;;;;0.40;0.20;;;16.30;95.50;;;;;;5094575;28;20534;-69
2021/10/27 12:44:43;;;;;;;0.40;0.30;;;17.30;96.30;;;;;;5094039;28;20370;-69
2021/10/27 12:47:13;;;;;;;1.20;0.80;;;17.40;94.30;;;;;;5094267;28;20414;-70
2021/10/27 12:49:46;;;;;;;0.40;0.30;;;17.60;96.20;;;;;;5093735;28;20892;-68
2021/10/27 12:52:28;;;;;;;0.40;0.20;;;17.20;94.90;;;;;;5094305;28;20402;-69
2021/10/27 12:55:09;;;;;;;0.40;0.20;;;17.60;94.70;;;;;;5094272;28;20378;-70
2021/10/27 12:57:48;;;;;;;0.60;0.60;;;17.90;93.80;;;;;;5093264;28;20887;-69
2021/10/27 13:00:23;;;;;;;0.60;0.50;;;18.00;94.40;;;;;;5093937;28;20383;-68
2021/10/27 13:05:59;;;;;;;0.50;0.40;;;17.90;94.20;;;;;;5093395;28;20750;-68
2021/10/27 13:16:14;;;;;;;0.50;0.40;;;17.50;94.50;;;;;;5093942;28;20371;-68
2021/10/27 13:29:50;;;;;;;0.40;0.30;;;17.80;93.70;;;;;;5093449;28;20382;-70
2021/10/27 13:31:51;;;;;;;0.40;0.20;;;17.90;94.50;;;;;;5085040;28;20382;-69
2021/10/27 13:34:17;;;;;;;0.40;0.30;;;17.90;94.40;;;;;;5093471;28;20391;-70
2021/10/27 13:36:46;;;;;;;0.40;0.20;;;17.50;95.20;;;;;;5093115;28;20386;-70
2021/10/27 13:39:12;;;;;;;0.40;0.20;;;17.40;94.60;;;;;;5092288;28;20737;-69
2021/10/27 13:41:37;;;;;;;0.40;0.20;;;17.20;94.90;;;;;;5092944;28;20493;-69
2021/10/27 13:44:12;;;;;;;0.40;0.30;;;18.00;93.30;;;;;;5093249;28;20378;-69
2021/10/27 14:08:25;;;;;;;0.40;0.20;;;17.90;96.00;;;;;;5092536;28;20420;-70
2021/10/27 14:16:26;;;;;;;0.40;0.30;;;16.40;97.60;;;;;;5092746;28;20386;-69
2021/10/27 14:40:35;;;;;;;0.43;0.38;;;16.50;99.90;;;;;;5078200;28;20401;-72
2021/10/27 14:50:32;;;;;;;0.50;0.40;;;16.30;99.90;;;;;;5078120;28;20413;-71
2021/10/27 15:15:25;;;;;;;0.40;0.30;;;15.90;99.90;;;;;;5078363;28;20818;-71
2021/10/27 15:20:54;;;;;;;0.40;0.20;;;16.30;99.90;;;;;;5074197;28;20392;-72
2021/10/27 15:23:45;;;;;;;0.40;0.20;;;15.70;99.90;;;;;;5077502;28;21629;-71
2021/10/27 15:36:51;;;;;;;0.40;0.40;;;14.60;99.90;;;;;;5076714;28;20390;-71
2021/10/27 15:44:42;;;;;;;0.40;0.22;;;14.00;99.90;;;;;;5077690;28;20401;-72
2021/10/27 15:52:37;;;;;;;0.40;0.30;;;13.60;99.90;;;;;;5077403;28;20440;-70
2021/10/27 15:55:07;;;;;;;0.40;0.20;;;13.30;99.90;;;;;;5077277;28;20404;-72
2021/10/27 15:57:35;;;;;;;0.40;0.30;;;13.30;99.90;;;;;;5077364;28;20389;-72
2021/10/27 16:00:01;;;;;;;0.40;0.20;;;13.30;99.90;;;;;;5075622;28;20386;-71
2021/10/27 16:02:27;;;;;;;0.40;0.20;;;13.20;99.90;;;;;;5076873;28;20390;-72
2021/10/27 16:04:54;;;;;;;0.40;0.40;;;13.30;99.90;;;;;;5076654;28;21523;-71
2021/10/27 16:07:20;;;;;;;0.40;0.20;;;13.20;99.90;;;;;;5077699;28;20874;-71
2021/10/27 16:09:49;;;;;;;1.30;0.80;;;13.00;99.90;;;;;;5076631;28;20432;-72
2021/10/27 16:12:15;;;;;;;0.40;0.20;;;12.80;99.90;;;;;;5075225;28;20389;-71
2021/10/27 16:14:41;;;;;;;0.40;0.30;;;12.70;99.90;;;;;;5076114;28;20382;-70
2021/10/27 16:17:07;;;;;;;0.50;0.47;;;12.50;99.90;;;;;;5076682;28;21182;-72
2021/10/27 16:19:34;;;;;;;0.90;0.55;;;12.30;99.90;;;;;;5077060;28;20928;-72
2021/10/27 16:22:00;;;;;;;0.40;0.20;;;12.20;99.90;;;;;;5075312;28;20381;-71
2021/10/27 16:24:26;;;;;;;0.90;0.80;;;12.10;99.90;;;;;;5077416;28;21178;-71
2021/10/27 16:26:53;;;;;;;0.90;0.70;;;12.10;99.90;;;;;;5076775;28;20848;-71
2021/10/27 16:29:19;;;;;;;0.40;0.30;;;12.10;99.90;;;;;;5077706;28;20417;-71
2021/10/27 16:31:46;;;;;;;0.50;0.50;;;12.00;99.90;;;;;;5074733;28;20464;-72
2021/10/27 16:34:13;;;;;;;0.80;0.80;;;11.90;99.90;;;;;;5077525;28;20389;-71
2021/10/27 16:36:42;;;;;;;0.40;0.30;;;11.70;99.90;;;;;;5077056;28;20558;-71
2021/10/27 16:39:11;;;;;;;0.95;0.47;;;11.60;99.90;;;;;;5076778;28;20489;-72
2021/10/27 16:41:38;;;;;;;0.60;0.50;;;11.50;99.90;;;;;;5072952;28;20428;-71
2021/10/27 16:44:04;;;;;;;0.47;0.40;;;11.50;99.90;;;;;;5066422;28;21188;-72
2021/10/27 16:46:30;;;;;;;0.70;0.60;;;11.40;99.90;;;;;;5076325;28;20394;-72
2021/10/27 16:48:57;;;;;;;0.40;0.30;;;11.30;99.90;;;;;;5075138;28;20447;-72
2021/10/27 16:51:24;;;;;;;0.40;0.20;;;11.40;99.90;;;;;;5074226;28;20469;-71
2021/10/27 16:53:50;;;;;;;0.50;0.50;;;11.40;99.90;;;;;;5079291;28;20397;-72
2021/10/27 16:56:16;;;;;;;0.40;0.20;;;11.30;99.90;;;;;;5080489;28;20386;-72
2021/10/27 16:58:41;;;;;;;1.10;1.00;;;11.30;99.90;;;;;;5079020;28;20863;-71
2021/10/27 17:01:07;;;;;;;0.40;0.20;;;11.20;99.90;;;;;;5076593;28;20513;-72
2021/10/27 17:03:33;;;;;;;0.40;0.25;;;11.10;99.90;;;;;;5080041;28;20965;-73
2021/10/27 17:05:59;;;;;;;0.50;0.40;;;11.00;99.90;;;;;;5079745;28;20404;-70
2021/10/27 17:08:25;;;;;;;0.40;0.40;;;11.00;99.90;;;;;;5080489;28;20417;-70
2021/10/27 17:10:53;;;;;;;0.40;0.20;;;11.00;99.90;;;;;;5075422;28;20437;-71
2021/10/27 17:13:20;;;;;;;0.40;0.20;;;10.90;99.90;;;;;;5078991;28;20402;-72
2021/10/27 17:15:46;;;;;;;0.40;0.30;;;10.80;99.90;;;;;;5077188;28;20405;-71
2021/10/27 17:18:14;;;;;;;0.40;0.30;;;10.80;99.90;;;;;;5078185;28;21660;-71
2021/10/27 17:20:45;;;;;;;0.40;0.20;;;10.80;99.90;;;;;;5075204;28;20467;-70
2021/10/27 17:23:18;;;;;;;2.80;1.10;;;10.70;99.90;;;;;;5079679;28;20828;-71
2021/10/27 17:25:43;;;;;;;0.70;0.70;;;10.60;99.90;;;;;;5077710;28;20863;-74
2021/10/27 17:28:09;;;;;;;0.60;0.60;;;10.60;99.90;;;;;;5078842;28;20973;-72
2021/10/27 17:30:36;;;;;;;0.40;0.30;;;10.60;99.90;;;;;;5074820;28;20393;-73
2021/10/27 17:33:03;;;;;;;0.40;0.30;;;10.60;99.90;;;;;;5078623;28;20419;-70
2021/10/27 17:35:30;;;;;;;0.40;0.30;;;10.50;99.90;;;;;;5077145;28;20394;-71
2021/10/27 17:37:56;;;;;;;1.00;0.90;;;10.40;99.90;;;;;;5076010;28;20386;-71
2021/10/27 17:40:31;;;;;;;0.40;0.20;;;10.30;99.90;;;;;;5072971;28;20393;-73
2021/10/27 17:42:58;;;;;;;0.40;0.40;;;10.20;99.90;;;;;;5077753;28;20499;-70